Time;durP1;ratioP1;P1;durP2;ratioP2;P2;SDS_P1;SDS_P2;PMS_P1;PMS_P2;Temp;Humidity;BMP_temperature;BMP_pressure;BME280_temperature;BME280_humidity;BME280_pressure;Samples;Min_cycle;Max_cycle;Signal;HPM_P1;HPM_P2
2022/09/03 00:34:39;;;;;;;2.57;2.37;;;;;;;9.98;100.00;99291.75;5893570;23;20480;-83
2022/09/03 00:37:07;;;;;;;3.30;2.60;;;;;;;9.95;100.00;99297.53;4979277;28;20215;-83
2022/09/03 01:04:55;;;;;;;3.40;3.10;;;;;;;9.72;100.00;99297.38;5862407;23;20212;-81
2022/09/03 01:29:50;;;;;;;3.50;3.07;;;;;;;9.51;100.00;99301.31;4912785;29;20230;-80
2022/09/03 01:32:47;;;;;;;2.83;2.63;;;;;;;9.46;100.00;99292.28;4911152;29;20238;-82
2022/09/03 01:35:37;;;;;;;3.00;2.80;;;;;;;9.43;100.00;99288.19;4913826;29;20246;-82
2022/09/03 01:38:28;;;;;;;3.00;2.80;;;;;;;9.39;100.00;99291.53;4914676;29;20234;-82
2022/09/03 01:44:25;;;;;;;3.37;3.07;;;;;;;9.40;100.00;99291.31;4911348;29;20276;-81
2022/09/03 01:47:32;;;;;;;3.83;3.20;;;;;;;9.37;100.00;99289.09;4922834;29;20325;-82
2022/09/03 01:50:07;;;;;;;3.00;2.80;;;;;;;9.34;100.00;99283.34;4911226;29;20289;-82
2022/09/03 01:52:34;;;;;;;3.47;3.17;;;;;;;9.38;100.00;99289.91;4939813;29;20260;-82
2022/09/03 01:55:25;;;;;;;3.43;3.13;;;;;;;9.36;100.00;99291.97;4927424;29;20241;-82
2022/09/03 01:57:55;;;;;;;5.17;3.27;;;;;;;9.31;100.00;99289.13;4924488;29;20269;-81
2022/09/03 02:00:22;;;;;;;3.27;2.97;;;;;;;9.25;100.00;99277.47;4922410;29;20256;-83
2022/09/03 02:02:51;;;;;;;3.50;3.20;;;;;;;9.21;100.00;99279.75;4930690;29;20238;-82
2022/09/03 02:05:28;;;;;;;4.50;3.17;;;;;;;9.19;100.00;99281.03;4928654;29;20226;-82
2022/09/03 02:11:07;;;;;;;3.40;3.10;;;;;;;9.13;100.00;99287.25;5011396;23;20247;-84
2022/09/03 02:14:12;;;;;;;4.00;3.60;;;;;;;9.16;100.00;99281.44;4984554;28;20224;-85
2022/09/03 02:19:42;;;;;;;4.73;3.60;;;;;;;9.09;100.00;99286.88;5001143;28;20227;-82
2022/09/03 02:24:49;;;;;;;3.97;3.50;;;;;;;9.12;100.00;99285.59;4933991;29;20228;-84
2022/09/03 02:27:16;;;;;;;3.73;3.43;;;;;;;9.09;100.00;99288.72;4928521;29;20171;-83
2022/09/03 02:29:43;;;;;;;4.70;3.90;;;;;;;9.07;100.00;99288.94;5086036;23;20251;-84
2022/09/03 02:32:13;;;;;;;4.03;3.63;;;;;;;9.05;100.00;99290.97;4985359;28;20229;-81
2022/09/03 02:50:48;;;;;;;3.83;3.20;;;;;;;8.91;100.00;99300.16;5012534;23;20240;-84
2022/09/03 02:53:16;;;;;;;5.10;3.47;;;;;;;8.89;100.00;99296.88;5078998;23;20241;-84
2022/09/03 02:56:13;;;;;;;3.43;3.13;;;;;;;8.84;100.00;99291.38;5671263;23;20232;-82
2022/09/03 02:58:40;;;;;;;3.60;3.30;;;;;;;8.79;100.00;99280.50;4985094;28;20212;-83
2022/09/03 03:01:07;;;;;;;3.60;3.30;;;;;;;8.79;100.00;99280.50;4981125;28;20240;-84
2022/09/03 03:04:13;;;;;;;3.97;3.40;;;;;;;8.74;100.00;99283.81;4962846;28;20220;-83
2022/09/03 03:07:34;;;;;;;3.53;3.30;;;;;;;8.75;100.00;99285.47;4979952;28;20192;-83
2022/09/03 03:12:45;;;;;;;3.77;3.40;;;;;;;8.72;100.00;99287.75;4939997;28;20229;-84
2022/09/03 03:28:33;;;;;;;4.10;3.70;;;;;;;8.56;100.00;99299.75;5698048;23;20702;-82
2022/09/03 03:43:00;;;;;;;5.03;3.50;;;;;;;8.42;100.00;99297.38;4909006;29;20239;-83
2022/09/03 03:45:27;;;;;;;6.00;3.40;;;;;;;8.39;100.00;99304.81;4911169;29;20299;-82
2022/09/03 03:47:58;;;;;;;3.60;3.30;;;;;;;8.42;100.00;99306.22;4911056;29;20306;-82
2022/09/03 03:50:26;;;;;;;6.37;3.50;;;;;;;8.43;100.00;99309.69;4910142;29;20235;-82
2022/09/03 03:52:54;;;;;;;5.53;3.57;;;;;;;8.38;100.00;99313.84;4910075;29;20274;-81
2022/09/03 03:55:21;;;;;;;3.70;3.40;;;;;;;8.40;100.00;99308.25;4908935;29;20239;-81
2022/09/03 03:57:53;;;;;;;3.63;3.33;;;;;;;8.42;100.00;99313.41;4909296;29;20259;-82
2022/09/03 04:00:20;;;;;;;3.80;3.50;;;;;;;8.43;100.00;99305.19;4905826;29;20258;-84
2022/09/03 04:02:50;;;;;;;3.50;3.20;;;;;;;8.44;100.00;99304.16;4899358;29;20243;-82
2022/09/03 04:05:17;;;;;;;3.60;3.30;;;;;;;8.44;100.00;99311.34;4910498;29;20262;-83
2022/09/03 04:07:49;;;;;;;5.53;3.30;;;;;;;8.37;100.00;99306.84;4907970;29;20313;-82
2022/09/03 04:10:16;;;;;;;4.43;3.67;;;;;;;8.33;100.00;99312.81;4891152;29;20242;-81
2022/09/03 04:12:43;;;;;;;3.57;3.27;;;;;;;8.30;100.00;99313.25;4907037;29;20238;-81
2022/09/03 04:15:10;;;;;;;3.80;3.50;;;;;;;8.29;100.00;99311.59;4906443;29;20239;-83
2022/09/03 04:17:38;;;;;;;3.93;3.53;;;;;;;8.26;100.00;99317.34;4907262;29;20246;-81
2022/09/03 04:20:08;;;;;;;3.70;3.40;;;;;;;8.24;100.00;99312.22;4903989;29;20238;-81
2022/09/03 04:22:35;;;;;;;3.73;3.40;;;;;;;8.24;100.00;99308.72;4907089;29;20242;-82
2022/09/03 04:25:03;;;;;;;4.10;3.37;;;;;;;8.24;100.00;99314.91;4906579;29;20252;-82
2022/09/03 04:27:30;;;;;;;4.30;3.60;;;;;;;8.19;100.00;99320.03;4905884;29;20241;-82
2022/09/03 04:29:57;;;;;;;4.07;3.40;;;;;;;8.22;100.00;99322.28;4906039;29;20242;-81
2022/09/03 04:35:09;;;;;;;4.13;3.73;;;;;;;8.26;100.00;99312.81;4906210;29;20249;-82
2022/09/03 04:37:36;;;;;;;3.73;3.43;;;;;;;8.28;100.00;99317.94;4910122;29;20294;-81
2022/09/03 04:40:06;;;;;;;3.70;3.27;;;;;;;8.31;100.00;99322.88;4908234;29;20236;-81
2022/09/03 04:42:33;;;;;;;5.57;3.67;;;;;;;8.34;100.00;99317.97;4934001;29;20289;-82
2022/09/03 04:45:00;;;;;;;4.13;3.73;;;;;;;8.44;100.00;99327.38;4938132;29;20245;-81
2022/09/03 04:47:27;;;;;;;4.47;3.70;;;;;;;8.55;100.00;99326.66;4931928;29;20233;-80
2022/09/03 04:49:54;;;;;;;3.63;3.33;;;;;;;8.67;100.00;99335.66;4929550;29;20230;-82
2022/09/03 04:52:21;;;;;;;4.10;3.80;;;;;;;8.78;100.00;99341.13;4938731;29;20260;-82
2022/09/03 04:54:49;;;;;;;4.80;4.00;;;;;;;8.86;100.00;99333.91;4937239;29;20221;-82
2022/09/03 04:57:16;;;;;;;4.20;3.83;;;;;;;8.99;100.00;99329.28;4928717;29;20260;-80
2022/09/03 04:59:44;;;;;;;5.10;3.53;;;;;;;9.14;100.00;99328.97;4943588;29;20261;-82
2022/09/03 05:02:14;;;;;;;4.00;3.70;;;;;;;9.29;100.00;99334.78;4942758;29;20237;-82
2022/09/03 05:04:42;;;;;;;5.13;4.17;;;;;;;9.49;100.00;99338.13;4939714;29;20259;-82
2022/09/03 05:07:11;;;;;;;4.27;3.73;;;;;;;9.63;100.00;99330.78;4936981;29;20288;-82
2022/09/03 05:09:38;;;;;;;4.33;3.93;;;;;;;9.74;100.00;99327.41;4936501;29;20264;-82
2022/09/03 05:12:06;;;;;;;3.90;3.60;;;;;;;9.95;100.00;99329.63;4939130;29;20234;-82
2022/09/03 05:14:36;;;;;;;3.90;3.50;;;;;;;10.12;100.00;99333.34;4953140;29;20238;-81
2022/09/03 05:17:03;;;;;;;4.00;3.57;;;;;;;10.29;100.00;99333.59;4940565;29;20269;-82
2022/09/03 05:19:30;;;;;;;3.63;3.33;;;;;;;10.43;100.00;99326.22;4950688;29;20933;-81
2022/09/03 05:21:57;;;;;;;3.97;3.63;;;;;;;10.55;100.00;99322.53;4931247;29;20232;-82
2022/09/03 05:24:29;;;;;;;4.50;3.50;;;;;;;10.73;100.00;99321.66;4914353;29;20298;-80
2022/09/03 05:27:01;;;;;;;4.80;3.43;;;;;;;10.88;100.00;99316.72;4938820;29;20270;-81
2022/09/03 05:29:31;;;;;;;3.97;3.67;;;;;;;11.01;100.00;99324.56;4953580;29;20317;-81
2022/09/03 05:31:59;;;;;;;3.77;3.47;;;;;;;11.28;100.00;99329.53;4940320;29;20563;-81
2022/09/03 05:34:26;;;;;;;4.77;3.57;;;;;;;11.46;100.00;99326.75;4928582;29;20265;-82
2022/09/03 05:36:54;;;;;;;4.70;4.00;;;;;;;11.62;100.00;99317.19;4931518;29;20262;-81
2022/09/03 05:39:20;;;;;;;4.50;3.73;;;;;;;11.65;100.00;99328.25;4933906;29;20233;-80
2022/09/03 05:41:49;;;;;;;5.23;4.10;;;;;;;11.83;100.00;99330.84;4930392;29;20238;-81
2022/09/03 05:44:16;;;;;;;4.87;3.37;;;;;;;12.05;100.00;99328.34;4929198;29;20305;-81
2022/09/03 05:46:43;;;;;;;5.10;3.60;;;;;;;12.34;100.00;99326.53;4934424;29;20242;-81
2022/09/03 05:49:10;;;;;;;6.50;3.80;;;;;;;12.49;100.00;99323.34;4938550;29;20237;-80
2022/09/03 05:51:41;;;;;;;4.33;3.63;;;;;;;12.41;100.00;99324.53;4934348;29;20321;-81
2022/09/03 05:54:10;;;;;;;4.33;3.93;;;;;;;12.62;100.00;99329.25;4917845;29;20242;-81
2022/09/03 05:56:39;;;;;;;4.37;4.07;;;;;;;12.63;100.00;99338.13;4936765;29;20230;-83
2022/09/03 05:59:20;;;;;;;4.10;3.67;;;;;;;12.88;100.00;99329.72;4933890;29;20234;-81
2022/09/03 06:01:48;;;;;;;6.23;3.97;;;;;;;12.80;100.00;99320.16;4928112;29;20377;-81
2022/09/03 06:04:18;;;;;;;5.60;3.87;;;;;;;12.84;100.00;99313.25;4927435;29;20242;-82
2022/09/03 06:06:48;;;;;;;4.20;3.80;;;;;;;13.12;100.00;99317.78;4931816;29;20239;-82
2022/09/03 06:09:22;;;;;;;4.63;3.80;;;;;;;13.28;100.00;99317.00;4923843;29;20228;-82
2022/09/03 06:11:49;;;;;;;4.10;3.70;;;;;;;13.42;100.00;99323.69;4942000;29;20253;-81
2022/09/03 06:14:18;;;;;;;4.43;4.00;;;;;;;13.42;100.00;99326.38;4920978;29;20250;-82
2022/09/03 06:16:51;;;;;;;4.57;4.13;;;;;;;13.35;100.00;99325.72;4929817;29;20246;-81
2022/09/03 06:19:19;;;;;;;4.90;3.80;;;;;;;13.64;100.00;99321.06;4943281;29;20233;-82
2022/09/03 06:21:48;;;;;;;5.30;4.07;;;;;;;13.70;100.00;99316.56;4935500;29;20655;-82
2022/09/03 06:24:20;;;;;;;3.90;3.60;;;;;;;13.94;100.00;99326.88;4934079;28;20244;-82
2022/09/03 06:26:47;;;;;;;4.70;3.60;;;;;;;13.95;100.00;99320.41;4938324;29;20274;-82
2022/09/03 06:29:18;;;;;;;4.50;4.10;;;;;;;14.24;100.00;99321.06;4933765;29;20239;-82
2022/09/03 06:31:50;;;;;;;6.97;3.90;;;;;;;14.42;100.00;99310.00;4938484;29;20731;-82
2022/09/03 06:34:21;;;;;;;4.80;3.70;;;;;;;14.59;100.00;99319.91;4944843;29;20678;-80
2022/09/03 06:36:48;;;;;;;4.23;3.83;;;;;;;14.61;100.00;99320.44;4926753;29;20253;-82
2022/09/03 06:39:15;;;;;;;3.90;3.60;;;;;;;14.71;100.00;99326.75;4935390;29;20579;-81
2022/09/03 06:41:44;;;;;;;4.07;3.70;;;;;;;14.81;100.00;99324.19;4939290;29;20260;-82
2022/09/03 06:44:11;;;;;;;4.00;3.50;;;;;;;14.82;100.00;99317.72;4944762;29;20240;-83
2022/09/03 06:46:41;;;;;;;4.40;4.00;;;;;;;14.88;100.00;99313.97;4936725;29;20241;-81
2022/09/03 06:49:09;;;;;;;3.67;3.30;;;;;;;15.15;100.00;99313.16;4946292;29;20248;-82
2022/09/03 06:51:42;;;;;;;3.93;3.53;;;;;;;15.25;100.00;99305.97;4943727;29;20351;-82
2022/09/03 06:54:10;;;;;;;3.90;3.60;;;;;;;15.46;100.00;99312.34;4925823;29;20245;-81
2022/09/03 06:56:44;;;;;;;3.40;3.03;;;;;;;15.47;100.00;99310.44;4941601;29;20229;-81
2022/09/03 06:59:14;;;;;;;3.33;3.13;;;;;;;15.62;100.00;99319.50;4944398;29;20238;-81
2022/09/03 07:01:42;;;;;;;4.63;3.00;;;;;;;15.81;100.00;99314.50;4937306;29;20221;-81
2022/09/03 07:04:12;;;;;;;3.90;3.13;;;;;;;16.02;100.00;99323.53;4942888;29;20222;-82
2022/09/03 07:06:41;;;;;;;3.33;3.03;;;;;;;15.89;100.00;99313.19;4926744;28;20292;-82
2022/09/03 07:09:37;;;;;;;3.97;3.10;;;;;;;16.17;100.00;99326.31;4926582;29;20246;-81
2022/09/03 07:12:04;;;;;;;4.23;3.10;;;;;;;16.21;100.00;99324.69;4922576;29;20271;-82
2022/09/03 07:14:30;;;;;;;5.10;3.10;;;;;;;16.37;100.00;99325.59;4942616;29;20234;-83
2022/09/03 07:16:57;;;;;;;3.07;2.87;;;;;;;16.51;100.00;99322.13;4925624;29;20717;-82
2022/09/03 07:19:24;;;;;;;3.40;3.13;;;;;;;16.60;99.16;99314.34;4944191;28;20261;-81
2022/09/03 07:21:50;;;;;;;2.97;2.73;;;;;;;16.79;100.00;99312.78;4927615;29;20936;-83
2022/09/03 07:24:18;;;;;;;3.10;2.80;;;;;;;16.92;98.19;99314.94;4933313;29;20321;-83
2022/09/03 07:26:46;;;;;;;3.60;3.00;;;;;;;17.13;96.10;99321.19;4929166;29;20296;-84
2022/09/03 07:29:14;;;;;;;3.47;2.60;;;;;;;17.32;95.41;99316.03;4922407;29;20240;-81
2022/09/03 07:31:42;;;;;;;4.63;3.43;;;;;;;17.25;88.97;99320.94;4936701;29;20254;-84
2022/09/03 07:34:11;;;;;;;3.03;2.83;;;;;;;17.23;91.52;99313.06;4928286;29;20692;-82
2022/09/03 07:36:41;;;;;;;3.07;2.77;;;;;;;17.32;89.21;99316.03;4927553;29;20233;-84
2022/09/03 07:39:10;;;;;;;3.10;2.80;;;;;;;17.51;88.17;99315.25;4939063;29;20246;-83
2022/09/03 07:41:37;;;;;;;4.97;2.83;;;;;;;17.58;86.29;99313.09;4925800;29;21043;-83
2022/09/03 07:44:06;;;;;;;2.60;2.40;;;;;;;17.64;85.41;99310.41;4914447;29;20318;-82
2022/09/03 07:46:35;;;;;;;3.53;2.43;;;;;;;17.82;85.68;99312.53;4915855;29;20258;-81
2022/09/03 07:49:04;;;;;;;2.80;2.50;;;;;;;17.85;86.77;99320.09;4931756;29;20225;-84
2022/09/03 07:51:33;;;;;;;3.63;2.50;;;;;;;18.04;86.08;99318.44;4937472;29;20713;-83
2022/09/03 07:54:03;;;;;;;3.20;2.90;;;;;;;18.12;83.80;99317.03;4925928;29;20226;-83
2022/09/03 07:56:30;;;;;;;2.97;2.67;;;;;;;18.24;83.74;99312.13;4928506;29;20261;-83
2022/09/03 07:58:57;;;;;;;4.03;3.13;;;;;;;18.43;81.41;99310.41;4927709;29;20233;-83
2022/09/03 08:01:27;;;;;;;3.60;2.60;;;;;;;18.61;80.48;99317.97;4941322;29;20261;-83
2022/09/03 08:03:54;;;;;;;2.70;2.50;;;;;;;18.80;78.29;99315.41;4923812;29;20239;-84
2022/09/03 08:06:23;;;;;;;3.23;2.63;;;;;;;18.92;77.72;99311.25;4920504;29;20241;-83
2022/09/03 08:09:01;;;;;;;11.40;3.43;;;;;;;19.08;76.80;99311.16;4921552;29;20239;-82
2022/09/03 08:11:33;;;;;;;2.97;2.53;;;;;;;19.21;75.33;99313.22;4921337;29;20232;-82
2022/09/03 08:14:05;;;;;;;3.53;2.43;;;;;;;19.34;75.96;99313.38;4939513;29;20292;-83
2022/09/03 08:16:41;;;;;;;3.43;2.57;;;;;;;19.55;73.05;99308.59;4918536;29;20326;-83
2022/09/03 08:19:08;;;;;;;3.40;2.50;;;;;;;19.65;72.36;99316.66;4920939;29;20715;-83
2022/09/03 08:21:35;;;;;;;4.10;2.27;;;;;;;19.67;71.92;99311.75;4922455;29;20237;-82
2022/09/03 08:24:02;;;;;;;4.97;2.60;;;;;;;19.75;71.72;99308.41;4929997;29;20250;-81
2022/09/03 08:26:31;;;;;;;3.53;2.40;;;;;;;19.81;72.39;99316.53;4925982;29;20241;-84
2022/09/03 08:28:58;;;;;;;2.57;2.33;;;;;;;19.99;71.22;99316.59;4924042;29;20319;-84
2022/09/03 08:31:26;;;;;;;3.67;2.73;;;;;;;20.13;69.01;99295.78;4931118;29;20246;-83
2022/09/03 08:33:55;;;;;;;4.30;2.50;;;;;;;20.34;68.53;99309.16;4941008;29;20226;-82
2022/09/03 08:36:24;;;;;;;3.13;2.70;;;;;;;20.51;67.82;99304.03;4946647;29;20713;-83
2022/09/03 08:38:53;;;;;;;2.77;2.47;;;;;;;20.69;67.88;99295.06;4922093;29;20719;-84
2022/09/03 08:41:43;;;;;;;4.23;2.33;;;;;;;20.86;66.36;99291.81;4932314;29;20264;-82
2022/09/03 08:44:34;;;;;;;6.33;2.50;;;;;;;21.01;66.46;99297.88;4933026;29;20301;-83
2022/09/03 08:47:23;;;;;;;2.50;2.20;;;;;;;21.15;64.17;99295.22;4929863;29;20370;-83
2022/09/03 08:50:26;;;;;;;2.50;2.20;;;;;;;21.34;65.73;99296.00;4930197;29;20245;-82
2022/09/03 08:53:00;;;;;;;4.67;2.50;;;;;;;21.50;65.39;99288.38;4942032;29;20712;-85
2022/09/03 08:55:30;;;;;;;9.00;3.17;;;;;;;21.65;64.96;99281.88;4948730;29;20232;-85
2022/09/03 08:58:06;;;;;;;3.37;2.30;;;;;;;21.88;64.61;99287.13;4931059;29;20250;-84
2022/09/03 09:01:02;;;;;;;3.90;2.20;;;;;;;22.08;62.03;99277.78;4952225;29;20251;-86
2022/09/03 09:03:37;;;;;;;2.50;2.17;;;;;;;22.31;60.98;99279.47;4935985;29;20257;-88
2022/09/03 09:06:18;;;;;;;3.77;2.10;;;;;;;22.52;60.54;99292.69;4944254;29;20237;-84
2022/09/03 09:09:03;;;;;;;2.85;2.08;;;;;;;22.68;59.06;99283.84;4917968;29;20240;-87
2022/09/03 09:11:58;;;;;;;3.17;1.80;;;;;;;22.86;57.88;99281.31;4937856;29;20241;-83
2022/09/03 09:14:51;;;;;;;2.40;1.90;;;;;;;23.11;57.31;99272.50;4944285;29;20660;-85
2022/09/03 09:17:31;;;;;;;2.60;2.40;;;;;;;23.30;56.13;99283.25;4941594;29;20225;-86
2022/09/03 09:20:16;;;;;;;3.28;2.40;;;;;;;23.30;55.75;99273.13;4946393;29;20309;-86
2022/09/03 09:22:51;;;;;;;3.78;2.40;;;;;;;23.38;55.42;99274.28;4924225;29;20253;-85
2022/09/03 09:25:19;;;;;;;2.47;2.00;;;;;;;23.68;54.72;99257.13;4944738;29;20277;-86
2022/09/03 09:28:00;;;;;;;2.83;2.15;;;;;;;23.67;54.57;99258.25;4925037;29;20234;-87
2022/09/03 09:30:31;;;;;;;6.85;2.97;;;;;;;23.87;53.74;99254.97;4939642;29;20285;-87
2022/09/03 09:32:59;;;;;;;4.75;2.22;;;;;;;24.07;53.38;99256.34;4936420;29;20240;-87
2022/09/03 09:35:26;;;;;;;3.55;2.20;;;;;;;24.26;53.65;99253.38;4936199;29;20224;-88
2022/09/03 09:37:55;;;;;;;2.80;2.50;;;;;;;24.36;52.44;99258.50;4932599;29;20252;-87
2022/09/03 09:40:33;;;;;;;4.93;2.53;;;;;;;24.39;52.77;99249.69;4937561;29;20337;-85
2022/09/03 09:43:04;;;;;;;24.45;4.95;;;;;;;24.68;52.32;99260.03;4947732;29;20955;-86
2022/09/03 09:45:33;;;;;;;3.42;2.40;;;;;;;24.63;51.05;99246.50;4948700;29;20239;-86
2022/09/03 09:48:02;;;;;;;9.80;3.00;;;;;;;24.72;50.97;99245.38;4941600;29;20270;-86
2022/09/03 09:50:29;;;;;;;5.00;2.70;;;;;;;24.88;50.10;99232.00;4929221;29;20325;-87
2022/09/03 09:53:04;;;;;;;18.13;3.45;;;;;;;24.93;48.90;99231.84;4945526;29;20238;-86
2022/09/03 09:55:31;;;;;;;3.47;2.10;;;;;;;25.06;47.88;99225.38;4918447;29;20237;-88
2022/09/03 09:58:09;;;;;;;17.80;3.15;;;;;;;25.12;47.39;99228.75;4946084;29;20323;-87
2022/09/03 10:00:41;;;;;;;4.50;2.17;;;;;;;25.12;47.16;99234.25;4951405;29;20233;-86
2022/09/03 10:03:12;;;;;;;3.20;2.17;;;;;;;25.11;46.26;99225.22;4936976;29;20316;-87
2022/09/03 10:05:39;;;;;;;9.00;2.53;;;;;;;25.09;47.25;99226.69;4933258;29;20709;-87
2022/09/03 10:08:18;;;;;;;3.83;2.10;;;;;;;25.05;46.26;99234.75;4934707;29;20239;-87
2022/09/03 10:10:48;;;;;;;3.08;2.10;;;;;;;25.13;46.59;99227.63;4933164;29;20324;-86
2022/09/03 10:13:18;;;;;;;24.73;4.38;;;;;;;25.14;47.31;99230.06;4917172;29;20233;-85
2022/09/03 10:15:49;;;;;;;3.78;2.35;;;;;;;25.30;46.66;99228.41;4930378;29;20221;-87
2022/09/03 10:18:38;;;;;;;28.33;5.05;;;;;;;25.36;46.62;99229.84;4945928;29;20228;-85
2022/09/03 10:21:14;;;;;;;44.03;6.78;;;;;;;25.41;46.25;99231.63;4930402;29;20295;-85
2022/09/03 10:23:52;;;;;;;3.53;2.10;;;;;;;25.53;45.82;99219.94;4950516;29;20236;-85
2022/09/03 10:26:28;;;;;;;5.03;2.13;;;;;;;25.68;46.03;99205.72;4950866;29;20245;-85
2022/09/03 10:28:59;;;;;;;2.50;1.90;;;;;;;25.89;45.06;99212.09;4931236;29;20259;-83
2022/09/03 10:32:03;;;;;;;2.90;1.95;;;;;;;26.14;43.49;99218.56;4937818;29;20670;-84
2022/09/03 10:34:47;;;;;;;2.75;1.92;;;;;;;26.44;43.47;99222.13;4926865;29;20237;-84
2022/09/03 10:37:25;;;;;;;2.38;2.17;;;;;;;26.64;43.33;99213.09;4934792;29;20762;-83
2022/09/03 10:40:10;;;;;;;2.10;1.90;;;;;;;26.83;42.96;99216.16;4930170;29;20324;-83
2022/09/03 10:42:59;;;;;;;4.03;1.80;;;;;;;27.15;41.63;99209.91;4919016;29;20635;-83
2022/09/03 10:45:46;;;;;;;1.98;1.88;;;;;;;27.38;41.16;99209.50;4930230;29;20253;-84
2022/09/03 10:48:22;;;;;;;2.95;2.03;;;;;;;27.48;40.85;99211.84;4927344;29;20240;-83
2022/09/03 10:51:03;;;;;;;3.17;1.73;;;;;;;27.69;40.80;99206.25;4927401;29;20372;-83
2022/09/03 10:53:51;;;;;;;5.38;1.77;;;;;;;27.61;40.32;99199.72;4927643;29;20717;-86
2022/09/03 10:56:32;;;;;;;2.00;1.80;;;;;;;27.40;40.71;99186.00;4926217;29;20230;-91
2022/09/03 10:59:29;;;;;;;2.08;1.95;;;;;;;27.67;40.66;99190.06;4926357;29;20233;-91
2022/09/03 11:02:15;;;;;;;3.75;1.80;;;;;;;27.49;40.56;99191.44;4923948;29;20249;-93
2022/09/03 11:05:01;;;;;;;2.17;1.55;;;;;;;27.09;41.56;99192.03;4924619;29;20768;-94
2022/09/03 11:07:39;;;;;;;4.22;1.70;;;;;;;27.51;40.05;99184.47;4921412;29;20235;-91
2022/09/03 11:10:13;;;;;;;3.65;1.95;;;;;;;27.21;40.92;99174.75;4925599;29;20704;-92
2022/09/03 11:13:07;;;;;;;3.65;1.90;;;;;;;27.18;40.69;99189.19;4941816;29;20323;-91
2022/09/03 11:15:42;;;;;;;2.08;1.60;;;;;;;26.59;41.21;99177.59;4938135;29;20237;-91
2022/09/03 11:18:28;;;;;;;5.10;1.73;;;;;;;26.86;40.66;99177.06;4944627;28;20241;-93
2022/09/03 11:20:59;;;;;;;2.50;1.67;;;;;;;26.75;41.25;99178.56;4950752;29;20344;-94
2022/09/03 11:45:34;;;;;;;3.35;1.77;;;;;;;26.59;41.70;99172.91;4982693;28;20225;-91
2022/09/03 11:48:01;;;;;;;2.67;1.90;;;;;;;26.80;40.93;99164.63;4935937;28;20244;-89
2022/09/03 11:50:32;;;;;;;2.78;1.85;;;;;;;26.82;41.01;99167.03;4951586;28;20221;-92
2022/09/03 11:53:23;;;;;;;2.75;2.10;;;;;;;27.11;40.37;99177.91;4937661;28;20278;-89
2022/09/03 11:55:55;;;;;;;1.95;1.60;;;;;;;27.45;39.82;99176.72;4951974;28;20315;-88
2022/09/03 11:58:26;;;;;;;1.90;1.80;;;;;;;27.63;39.89;99178.16;4946295;28;20235;-91
2022/09/03 12:00:53;;;;;;;1.95;1.77;;;;;;;27.82;38.74;99183.09;4940705;28;20236;-90
2022/09/03 12:03:35;;;;;;;3.78;1.70;;;;;;;28.10;38.59;99163.91;4938039;28;20666;-89
2022/09/03 12:06:19;;;;;;;2.33;1.70;;;;;;;28.14;38.84;99162.91;4954099;28;20235;-90
2022/09/03 12:09:13;;;;;;;1.83;1.67;;;;;;;28.26;38.42;99182.19;4957464;28;20236;-87
2022/09/03 12:12:13;;;;;;;1.88;1.77;;;;;;;28.40;38.16;99190.88;4941231;28;20335;-88
2022/09/03 12:15:13;;;;;;;3.55;1.73;;;;;;;28.61;37.51;99176.91;4931293;28;20281;-88
2022/09/03 12:20:45;;;;;;;3.35;1.92;;;;;;;29.19;36.53;99174.63;4953924;28;20236;-87
2022/09/03 12:23:27;;;;;;;2.90;1.83;;;;;;;29.38;37.00;99173.94;4954323;28;20234;-88
2022/09/03 12:25:54;;;;;;;2.65;1.80;;;;;;;29.69;37.01;99168.44;4939251;28;20219;-88
2022/09/03 12:28:22;;;;;;;2.10;1.60;;;;;;;29.95;35.72;99165.94;4950929;28;20322;-88
2022/09/03 12:30:52;;;;;;;2.13;1.60;;;;;;;29.64;35.78;99161.22;4946600;28;20324;-88
2022/09/03 12:33:20;;;;;;;4.25;1.80;;;;;;;29.95;36.09;99154.91;4949933;28;20263;-88
2022/09/03 12:35:57;;;;;;;3.67;1.80;;;;;;;30.15;35.28;99156.53;4950414;28;20323;-88
2022/09/03 12:38:28;;;;;;;2.65;1.70;;;;;;;30.37;34.85;99144.00;4948056;28;20232;-88
2022/09/03 12:40:55;;;;;;;2.85;1.70;;;;;;;30.16;34.62;99141.56;4930993;28;20248;-88
2022/09/03 12:43:50;;;;;;;2.83;2.00;;;;;;;29.76;35.14;99138.25;4945587;28;20240;-89
2022/09/03 12:46:19;;;;;;;4.13;1.70;;;;;;;29.72;36.29;99138.13;4922212;28;20228;-88
2022/09/03 12:49:04;;;;;;;2.97;2.05;;;;;;;30.01;35.55;99144.34;4936823;28;20248;-89
2022/09/03 12:51:52;;;;;;;4.15;1.90;;;;;;;29.89;35.68;99119.63;4963903;28;20275;-88
2022/09/03 12:54:26;;;;;;;2.25;1.80;;;;;;;30.00;35.27;99135.25;4940530;28;20306;-89
2022/09/03 12:56:57;;;;;;;2.03;1.90;;;;;;;30.09;33.93;99137.84;4920797;28;20225;-89
2022/09/03 12:59:27;;;;;;;2.13;1.92;;;;;;;30.13;34.09;99145.06;4936774;28;20232;-88
2022/09/03 13:01:58;;;;;;;2.00;1.80;;;;;;;29.99;34.31;99133.69;4935888;28;20332;-88
2022/09/03 13:04:28;;;;;;;2.90;2.17;;;;;;;29.87;34.44;99135.72;4919758;28;20710;-89
2022/09/03 13:07:10;;;;;;;2.10;1.90;;;;;;;30.03;34.80;99140.09;4938712;28;20229;-88
2022/09/03 13:09:39;;;;;;;2.00;1.85;;;;;;;29.97;35.48;99124.94;4919346;28;20292;-88
2022/09/03 13:12:06;;;;;;;2.20;2.00;;;;;;;30.01;35.25;99130.53;4940523;28;20567;-88
2022/09/03 13:14:43;;;;;;;1.92;1.80;;;;;;;29.92;35.03;99128.00;4937399;28;20241;-88
2022/09/03 13:17:37;;;;;;;2.65;1.80;;;;;;;29.98;35.89;99123.00;4958952;28;20232;-89
2022/09/03 13:20:12;;;;;;;3.03;2.15;;;;;;;29.96;35.49;99126.09;4944577;28;20232;-88
2022/09/03 13:23:17;;;;;;;2.10;1.90;;;;;;;29.87;35.46;99119.94;4969174;28;20227;-88
2022/09/03 13:25:47;;;;;;;3.05;2.17;;;;;;;29.93;35.42;99117.75;4952097;28;20228;-88
2022/09/03 13:28:39;;;;;;;3.17;2.00;;;;;;;30.27;34.28;99116.13;4937776;28;20287;-88
2022/09/03 13:31:18;;;;;;;4.55;2.00;;;;;;;30.27;35.31;99116.13;4958216;28;20225;-88
2022/09/03 13:33:49;;;;;;;2.22;1.80;;;;;;;30.41;34.48;99116.44;4960280;28;20236;-87
2022/09/03 13:36:23;;;;;;;2.60;1.67;;;;;;;30.38;34.50;99108.84;4939808;28;20223;-88
2022/09/03 13:39:27;;;;;;;3.00;1.88;;;;;;;29.86;35.07;99106.53;4954316;28;20695;-88
2022/09/03 13:42:16;;;;;;;3.10;1.70;;;;;;;29.79;35.23;99098.88;4958484;28;20306;-88
2022/09/03 13:45:05;;;;;;;1.85;1.75;;;;;;;29.66;35.86;99097.38;4959568;28;20283;-89
2022/09/03 13:50:20;;;;;;;2.05;1.88;;;;;;;30.10;35.84;99079.47;4918765;28;20734;-88
2022/09/03 13:50:30;;;;;;;3.35;2.05;;;;;;;30.45;35.85;99100.72;4955062;28;20252;-89
2022/09/03 13:53:13;;;;;;;2.83;1.80;;;;;;;30.54;33.53;99107.66;4923479;28;20255;-89
2022/09/03 13:55:49;;;;;;;2.83;2.00;;;;;;;30.82;32.90;99103.84;4939281;28;20237;-89
2022/09/03 13:58:25;;;;;;;1.77;1.67;;;;;;;31.00;33.60;99094.69;4923889;28;20687;-91
2022/09/03 14:01:07;;;;;;;2.03;1.92;;;;;;;30.90;34.08;99095.31;4947210;28;20459;-89
2022/09/03 14:03:57;;;;;;;2.75;1.92;;;;;;;30.69;34.03;99100.44;4929043;28;20228;-89
2022/09/03 14:06:25;;;;;;;2.22;2.00;;;;;;;30.85;34.02;99090.06;4927175;28;20279;-89
2022/09/03 14:09:00;;;;;;;1.83;1.73;;;;;;;30.37;34.23;99090.69;4937768;28;20307;-88
2022/09/03 14:11:46;;;;;;;2.40;1.70;;;;;;;30.31;34.57;99089.38;4952536;28;20240;-89
2022/09/03 14:14:36;;;;;;;2.40;2.20;;;;;;;30.41;35.18;99091.56;4937689;28;20232;-89
2022/09/03 14:17:22;;;;;;;3.78;1.80;;;;;;;30.30;35.23;99094.09;4927950;28;20235;-89
2022/09/03 14:19:58;;;;;;;2.38;2.00;;;;;;;29.81;35.47;99091.03;4956149;28;20236;-89
2022/09/03 14:22:48;;;;;;;1.80;1.70;;;;;;;29.51;35.81;99096.25;4940240;29;20248;-90
2022/09/03 14:25:20;;;;;;;1.70;1.50;;;;;;;29.41;35.81;99085.75;4925411;28;20235;-89
2022/09/03 14:27:47;;;;;;;3.03;1.88;;;;;;;29.67;35.56;99091.50;4950823;28;20332;-88
2022/09/03 14:30:29;;;;;;;2.65;1.70;;;;;;;29.94;35.53;99092.53;4924236;28;20228;-89
2022/09/03 14:33:02;;;;;;;1.92;1.73;;;;;;;30.07;35.29;99101.50;4951446;28;20224;-89
2022/09/03 14:35:35;;;;;;;2.10;1.90;;;;;;;30.04;35.24;99099.47;4928422;29;20241;-89
2022/09/03 14:38:26;;;;;;;2.15;1.88;;;;;;;30.54;35.35;99102.13;4942449;28;20653;-88
2022/09/03 14:41:19;;;;;;;1.60;1.50;;;;;;;30.79;33.44;99099.06;4937585;29;20245;-89
2022/09/03 14:44:04;;;;;;;2.40;1.75;;;;;;;31.08;33.17;99111.47;4923690;29;20244;-90
2022/09/03 14:46:54;;;;;;;1.90;1.80;;;;;;;31.02;33.03;99099.91;4947409;29;20237;-89
2022/09/03 14:49:30;;;;;;;2.42;1.90;;;;;;;30.62;33.63;99097.53;4955509;29;20692;-89
2022/09/03 14:52:11;;;;;;;2.08;1.70;;;;;;;30.31;34.00;99105.94;4955147;28;20220;-89